createdAt,value
2022-12-18T00:00:06.868Z,100437.97
2022-12-18T00:03:02.144Z,100443.95
2022-12-18T00:05:30.595Z,100439.73
2022-12-18T00:07:58.905Z,100441.60
2022-12-18T00:10:29.113Z,100448.55
2022-12-18T00:12:57.264Z,100449.27
2022-12-18T00:15:25.954Z,100451.77
2022-12-18T00:17:54.420Z,100449.40
2022-12-18T00:20:26.659Z,100444.94
2022-12-18T00:22:55.341Z,100449.21
2022-12-18T00:25:24.125Z,100448.84
2022-12-18T00:27:52.472Z,100453.48
2022-12-18T00:30:20.780Z,100455.27
2022-12-18T00:32:48.880Z,100462.80
2022-12-18T00:35:17.003Z,100463.13
2022-12-18T00:37:45.334Z,100465.73
2022-12-18T00:40:13.762Z,100465.77
2022-12-18T00:42:56.848Z,100468.50
2022-12-18T00:45:30.256Z,100474.02
2022-12-18T00:47:59.015Z,100478.02
2022-12-18T00:50:27.699Z,100478.75
2022-12-18T00:52:55.841Z,100480.42
2022-12-18T00:55:24.236Z,100481.71
2022-12-18T00:57:53.480Z,100484.55
2022-12-18T01:00:21.884Z,100488.23
2022-12-18T01:02:50.744Z,100496.02
2022-12-18T01:05:19.758Z,100494.27
2022-12-18T01:07:47.931Z,100495.14
2022-12-18T01:10:16.106Z,100500.61
2022-12-18T01:12:44.500Z,100502.61
2022-12-18T01:15:14.419Z,100500.09
2022-12-18T01:17:43.518Z,100503.88
2022-12-18T01:20:13.319Z,100505.30
2022-12-18T01:22:41.379Z,100510.73
2022-12-18T01:25:10.594Z,100510.84
2022-12-18T01:27:38.772Z,100516.31
2022-12-18T01:30:07.508Z,100520.59
2022-12-18T01:32:35.709Z,100518.99
2022-12-18T01:35:04.561Z,100518.42
2022-12-18T01:37:32.693Z,100527.05
2022-12-18T01:40:00.771Z,100529.25
2022-12-18T01:42:29.366Z,100529.86
2022-12-18T01:45:12.851Z,100533.92
2022-12-18T01:48:01.916Z,100531.92
2022-12-18T01:50:44.277Z,100537.45
2022-12-18T01:53:20.009Z,100537.55
2022-12-18T01:55:52.911Z,100536.27
2022-12-18T01:58:31.252Z,100535.66
2022-12-18T02:05:53.595Z,100542.39
2022-12-18T02:08:28.322Z,100541.17
2022-12-18T02:11:24.492Z,100545.02
2022-12-18T02:14:11.969Z,100549.52
2022-12-18T02:16:53.874Z,100555.19
2022-12-18T02:19:40.748Z,100564.11
2022-12-18T02:22:09.086Z,100566.16
2022-12-18T02:24:59.790Z,100569.22
2022-12-18T02:27:30.917Z,100571.20
2022-12-18T02:30:02.372Z,100571.54
2022-12-18T02:32:35.503Z,100571.23
2022-12-18T02:35:07.073Z,100569.59
2022-12-18T02:37:37.632Z,100577.20
2022-12-18T02:40:08.862Z,100586.54
2022-12-18T02:42:38.125Z,100593.95
2022-12-18T02:45:08.280Z,100598.70
2022-12-18T02:47:40.139Z,100606.45
2022-12-18T02:50:32.818Z,100610.40
2022-12-18T02:53:45.385Z,100608.78
2022-12-18T02:56:44.697Z,100615.57
2022-12-18T02:59:19.885Z,100622.54
2022-12-18T03:01:54.864Z,100626.45
2022-12-18T03:04:32.230Z,100628.50
2022-12-18T03:07:04.459Z,100627.99
2022-12-18T03:09:37.577Z,100627.73
2022-12-18T03:12:23.949Z,100631.96
2022-12-18T03:14:59.743Z,100631.02
2022-12-18T03:17:31.503Z,100630.60
2022-12-18T03:20:06.975Z,100632.73
2022-12-18T03:22:38.485Z,100631.14
2022-12-18T03:25:11.198Z,100637.14
2022-12-18T03:27:46.172Z,100638.40
2022-12-18T03:30:18.891Z,100641.23
2022-12-18T03:33:00.238Z,100646.69
2022-12-18T03:35:34.475Z,100647.75
2022-12-18T03:38:03.033Z,100649.00
2022-12-18T03:40:46.587Z,100654.94
2022-12-18T03:43:53.819Z,100657.86
2022-12-18T03:46:41.750Z,100658.73
2022-12-18T03:49:26.869Z,100657.68
2022-12-18T03:52:05.084Z,100661.89
2022-12-18T03:54:36.470Z,100670.77
2022-12-18T03:57:18.169Z,100679.02
2022-12-18T03:59:49.489Z,100681.14
2022-12-18T04:02:19.792Z,100684.61
2022-12-18T04:04:50.657Z,100683.96
2022-12-18T04:07:20.154Z,100692.11
2022-12-18T04:09:50.671Z,100693.45
2022-12-18T04:12:19.361Z,100704.67
2022-12-18T04:14:49.501Z,100708.07
2022-12-18T04:17:19.332Z,100704.16
2022-12-18T04:19:48.634Z,100708.98
2022-12-18T04:22:17.577Z,100711.89
2022-12-18T04:24:48.015Z,100716.08
2022-12-18T04:27:23.246Z,100716.50
2022-12-18T04:29:51.957Z,100715.09
2022-12-18T04:32:20.205Z,100714.47
2022-12-18T04:34:49.109Z,100713.81
2022-12-18T04:37:17.347Z,100723.38
2022-12-18T04:39:46.114Z,100729.31
2022-12-18T04:42:23.032Z,100735.54
2022-12-18T04:44:51.127Z,100740.97
2022-12-18T04:47:19.409Z,100743.33
2022-12-18T04:49:48.019Z,100745.35
2022-12-18T04:52:16.038Z,100745.20
2022-12-18T04:54:44.181Z,100748.15
2022-12-18T04:57:12.889Z,100754.51
2022-12-18T04:59:42.363Z,100756.82
2022-12-18T05:02:10.637Z,100759.46
2022-12-18T05:04:39.994Z,100759.30
2022-12-18T05:07:08.071Z,100761.27
2022-12-18T05:09:36.459Z,100763.77
2022-12-18T05:12:05.040Z,100760.58
2022-12-18T05:14:33.170Z,100759.20
2022-12-18T05:17:01.463Z,100760.99
2022-12-18T05:19:30.407Z,100763.15
2022-12-18T05:21:58.762Z,100763.10
2022-12-18T05:24:27.101Z,100765.86
2022-12-18T05:26:56.021Z,100763.33
2022-12-18T05:29:24.199Z,100770.48
2022-12-18T05:31:52.360Z,100772.41
2022-12-18T05:34:21.233Z,100770.25
2022-12-18T05:36:49.337Z,100773.53
2022-12-18T05:39:17.486Z,100774.20
2022-12-18T05:41:45.889Z,100776.08
2022-12-18T05:44:14.969Z,100783.48
2022-12-18T05:46:43.146Z,100785.23
2022-12-18T05:49:11.463Z,100782.89
2022-12-18T05:51:39.597Z,100786.98
2022-12-18T05:54:08.524Z,100790.48
2022-12-18T05:56:36.638Z,100788.83
2022-12-18T05:59:04.744Z,100788.51
2022-12-18T06:01:32.866Z,100795.59
2022-12-18T06:04:01.883Z,100798.81
2022-12-18T06:06:30.101Z,100802.42
2022-12-18T06:08:58.607Z,100802.38
2022-12-18T06:11:28.205Z,100811.27
2022-12-18T06:13:59.583Z,100818.48
2022-12-18T06:16:30.101Z,100819.61
2022-12-18T06:19:04.158Z,100820.70
2022-12-18T06:21:33.279Z,100826.52
2022-12-18T06:24:02.066Z,100833.20
2022-12-18T06:26:30.170Z,100835.35
2022-12-18T06:28:58.720Z,100843.48
2022-12-18T06:31:27.217Z,100852.77
2022-12-18T06:33:55.380Z,100851.33
2022-12-18T06:36:24.260Z,100852.47
2022-12-18T06:38:52.427Z,100856.50
2022-12-18T06:41:22.147Z,100862.16
2022-12-18T06:43:50.737Z,100869.92
2022-12-18T06:46:18.972Z,100873.57
2022-12-18T06:48:51.703Z,100870.85
2022-12-18T06:51:21.780Z,100877.71
2022-12-18T06:53:49.910Z,100880.77
2022-12-18T06:56:18.473Z,100881.98
2022-12-18T06:58:46.737Z,100891.69
2022-12-18T07:01:15.353Z,100889.42
2022-12-18T07:03:44.811Z,100887.28
2022-12-18T07:06:16.059Z,100894.60
2022-12-18T07:08:44.950Z,100895.45
2022-12-18T07:11:13.255Z,100897.59
2022-12-18T07:13:42.108Z,100900.67
2022-12-18T07:16:18.375Z,100906.41
2022-12-18T07:18:50.921Z,100910.36
2022-12-18T07:21:20.774Z,100910.36
2022-12-18T07:23:49.543Z,100928.86
2022-12-18T07:26:20.664Z,100931.96
2022-12-18T07:28:49.670Z,100931.71
2022-12-18T07:31:21.594Z,100931.83
2022-12-18T07:33:51.788Z,100937.23
2022-12-18T07:36:20.726Z,100937.07
2022-12-18T07:38:50.184Z,100936.67
2022-12-18T07:41:20.691Z,100946.34
2022-12-18T07:43:49.126Z,100950.39
2022-12-18T07:46:17.812Z,100949.54
2022-12-18T07:48:49.968Z,100951.80
2022-12-18T07:51:19.518Z,100954.89
2022-12-18T07:53:50.323Z,100956.55
2022-12-18T07:56:30.324Z,100959.22
2022-12-18T07:59:00.620Z,100965.57
2022-12-18T08:01:31.799Z,100970.19
2022-12-18T08:04:00.116Z,100965.54
2022-12-18T08:06:28.539Z,100965.45
2022-12-18T08:08:56.941Z,100961.02
2022-12-18T08:11:27.940Z,100964.67
2022-12-18T08:13:56.939Z,100966.00
2022-12-18T08:16:25.459Z,100971.83
2022-12-18T08:18:54.496Z,100980.27
2022-12-18T08:21:28.430Z,100975.32
2022-12-18T08:23:59.011Z,100973.27
2022-12-18T08:26:30.353Z,100980.44
2022-12-18T08:29:00.748Z,100982.66
2022-12-18T08:31:31.017Z,100981.77
2022-12-18T08:34:00.100Z,100986.61
2022-12-18T08:36:28.182Z,100986.63
2022-12-18T08:38:57.477Z,100988.04
2022-12-18T08:41:26.068Z,100987.28
2022-12-18T08:44:12.425Z,100989.26
2022-12-18T08:46:43.142Z,100996.49
2022-12-18T08:49:12.401Z,100994.52
2022-12-18T08:51:40.891Z,101002.41
2022-12-18T08:54:12.648Z,101011.80
2022-12-18T08:56:40.735Z,101011.50
2022-12-18T08:59:13.156Z,101018.23
2022-12-18T09:01:46.719Z,101025.13
2022-12-18T09:04:18.086Z,101028.84
2022-12-18T09:06:46.271Z,101032.44
2022-12-18T09:09:14.337Z,101036.39
2022-12-18T09:11:42.656Z,101039.73
2022-12-18T09:14:11.510Z,101046.23
2022-12-18T09:16:39.743Z,101046.41
2022-12-18T09:19:07.958Z,101047.90
2022-12-18T09:21:37.138Z,101048.27
2022-12-18T09:24:08.622Z,101052.17
2022-12-18T09:26:38.104Z,101050.16
2022-12-18T09:29:08.371Z,101055.30
2022-12-18T09:31:37.672Z,101050.59
2022-12-18T09:34:07.294Z,101052.33
2022-12-18T09:36:35.754Z,101055.34
2022-12-18T09:39:08.240Z,101048.08
2022-12-18T09:41:45.839Z,101049.44
2022-12-18T09:44:23.561Z,101053.67
2022-12-18T09:47:03.642Z,101053.30
2022-12-18T09:49:35.681Z,101059.10
2022-12-18T09:52:21.260Z,101057.64
2022-12-18T09:54:56.085Z,101049.45
2022-12-18T09:57:26.728Z,101049.83
2022-12-18T10:00:00.142Z,101050.18
2022-12-18T10:02:32.726Z,101051.83
2022-12-18T10:05:16.706Z,101047.95
2022-12-18T10:08:03.763Z,101047.86
2022-12-18T10:10:41.211Z,101051.38
2022-12-18T10:13:19.097Z,101048.43
2022-12-18T10:15:55.705Z,101045.95
2022-12-18T10:18:51.720Z,101054.53
2022-12-18T10:21:57.577Z,101051.92
2022-12-18T10:24:40.490Z,101050.94
2022-12-18T10:27:28.232Z,101041.97
2022-12-18T10:29:57.116Z,101037.20
2022-12-18T10:32:31.507Z,101033.99
2022-12-18T10:35:00.885Z,101036.09
2022-12-18T10:37:30.945Z,101035.78
2022-12-18T10:40:18.279Z,101033.61
2022-12-18T10:43:14.520Z,101034.92
2022-12-18T10:45:58.507Z,101034.63
2022-12-18T10:48:27.937Z,101029.17
2022-12-18T10:51:12.620Z,101038.09
2022-12-18T10:53:44.024Z,101042.25
2022-12-18T10:56:13.286Z,101039.83
2022-12-18T10:58:41.820Z,101041.24
2022-12-18T11:01:16.862Z,101048.89
2022-12-18T11:03:46.405Z,101057.95
2022-12-18T11:06:21.307Z,101055.42
2022-12-18T11:09:13.169Z,101051.66
2022-12-18T11:11:50.352Z,101051.47
2022-12-18T11:14:23.807Z,101046.22
2022-12-18T11:19:42.441Z,101043.11
2022-12-18T11:22:33.844Z,101042.67
2022-12-18T11:27:55.981Z,101046.41
2022-12-18T11:30:36.459Z,101041.41
2022-12-18T11:33:18.867Z,101048.66
2022-12-18T11:35:53.071Z,101046.50
2022-12-18T11:38:21.587Z,101047.48
2022-12-18T11:41:18.632Z,101046.11
2022-12-18T11:43:51.042Z,101043.36
2022-12-18T11:46:32.100Z,101040.02
2022-12-18T11:49:04.797Z,101040.58
2022-12-18T11:51:47.653Z,101040.52
2022-12-18T11:54:17.370Z,101037.33
2022-12-18T11:56:52.041Z,101037.97
2022-12-18T11:59:27.879Z,101039.20
2022-12-18T12:02:01.742Z,101043.11
2022-12-18T12:04:52.871Z,101043.89
2022-12-18T12:07:42.457Z,101048.10
2022-12-18T12:10:47.577Z,101055.27
2022-12-18T12:13:40.875Z,101054.69
2022-12-18T12:16:28.322Z,101050.11
2022-12-18T12:19:29.824Z,101051.95
2022-12-18T12:22:04.040Z,101060.60
2022-12-18T12:24:57.141Z,101059.92
2022-12-18T12:27:59.242Z,101065.55
2022-12-18T12:31:03.528Z,101066.48
2022-12-18T12:34:11.334Z,101061.95
2022-12-18T12:36:52.484Z,101064.35
2022-12-18T12:39:23.641Z,101059.66
2022-12-18T12:42:11.004Z,101061.29
2022-12-18T12:44:55.668Z,101065.57
2022-12-18T12:47:30.831Z,101072.33
2022-12-18T12:50:02.972Z,101084.45
2022-12-18T12:52:45.330Z,101090.57
2022-12-18T12:55:22.311Z,101090.41
2022-12-18T12:58:20.874Z,101089.82
2022-12-18T13:01:23.540Z,101096.20
2022-12-18T13:04:04.619Z,101103.88
2022-12-18T13:07:06.612Z,101108.59
2022-12-18T13:10:17.705Z,101109.45
2022-12-18T13:12:58.061Z,101113.31
2022-12-18T13:15:39.968Z,101113.98
2022-12-18T13:18:11.664Z,101112.50
2022-12-18T13:20:45.612Z,101112.58
2022-12-18T13:23:28.829Z,101110.65
2022-12-18T13:26:10.819Z,101111.16
2022-12-18T13:28:48.234Z,101104.41
2022-12-18T13:31:42.658Z,101111.32
2022-12-18T13:34:26.300Z,101114.68
2022-12-18T13:36:58.426Z,101116.45
2022-12-18T13:42:54.616Z,101112.59
2022-12-18T13:45:44.338Z,101118.81
2022-12-18T13:48:37.159Z,101120.06
2022-12-18T13:51:08.811Z,101126.20
2022-12-18T13:53:43.659Z,101131.84
2022-12-18T13:56:22.945Z,101134.80
2022-12-18T13:59:19.453Z,101134.56
2022-12-18T14:02:02.525Z,101133.72
2022-12-18T14:07:22.201Z,101134.16
2022-12-18T14:10:01.902Z,101136.51
2022-12-18T14:12:55.020Z,101135.38
2022-12-18T14:15:26.253Z,101141.27
2022-12-18T14:18:00.856Z,101139.84
2022-12-18T14:20:32.057Z,101140.64
2022-12-18T14:23:01.457Z,101138.63
2022-12-18T14:25:31.847Z,101141.63
2022-12-18T14:28:13.425Z,101143.63
2022-12-18T14:30:42.929Z,101143.30
2022-12-18T14:33:16.487Z,101142.27
2022-12-18T14:36:04.503Z,101141.72
2022-12-18T14:38:40.302Z,101141.40
2022-12-18T14:41:12.674Z,101146.48
2022-12-18T14:43:43.532Z,101142.42
2022-12-18T14:46:36.432Z,101138.44
2022-12-18T14:49:30.505Z,101130.98
2022-12-18T14:52:05.461Z,101129.64
2022-12-18T14:54:38.637Z,101130.94
2022-12-18T14:57:18.818Z,101128.33
2022-12-18T14:59:47.016Z,101127.81
2022-12-18T15:02:27.837Z,101138.38
2022-12-18T15:05:14.838Z,101141.30
2022-12-18T15:07:47.378Z,101145.59
2022-12-18T15:10:21.359Z,101141.02
2022-12-18T15:12:51.491Z,101143.99
2022-12-18T15:15:38.115Z,101151.25
2022-12-18T15:18:14.024Z,101152.42
2022-12-18T15:20:47.429Z,101150.30
2022-12-18T15:23:20.547Z,101153.02
2022-12-18T15:25:55.715Z,101153.09
2022-12-18T15:28:38.443Z,101160.02
2022-12-18T15:31:12.300Z,101167.70
2022-12-18T15:34:00.611Z,101166.91
2022-12-18T15:36:31.293Z,101165.55
2022-12-18T15:39:05.449Z,101168.94
2022-12-18T15:41:37.129Z,101175.69
2022-12-18T15:44:23.869Z,101176.37
2022-12-18T15:46:52.411Z,101186.04
2022-12-18T15:49:21.328Z,101196.84
2022-12-18T15:51:55.232Z,101201.17
2022-12-18T15:54:43.667Z,101205.92
2022-12-18T15:57:25.371Z,101195.86
2022-12-18T15:59:57.461Z,101195.17
2022-12-18T16:02:26.124Z,101197.12
2022-12-18T16:04:55.249Z,101198.73
2022-12-18T16:07:25.240Z,101199.00
2022-12-18T16:09:54.006Z,101197.84
2022-12-18T16:12:25.458Z,101203.48
2022-12-18T16:14:53.684Z,101206.19
2022-12-18T16:17:22.280Z,101210.39
2022-12-18T16:19:50.640Z,101210.02
2022-12-18T16:22:24.664Z,101203.60
2022-12-18T16:24:54.638Z,101196.20
2022-12-18T16:27:23.925Z,101194.66
2022-12-18T16:29:52.508Z,101191.32
2022-12-18T16:32:23.399Z,101186.00
2022-12-18T16:34:51.913Z,101185.02
2022-12-18T16:37:20.114Z,101184.83
2022-12-18T16:39:48.445Z,101189.61
2022-12-18T16:42:20.112Z,101188.41
2022-12-18T16:44:50.709Z,101199.87
2022-12-18T16:47:19.848Z,101200.34
2022-12-18T16:49:52.021Z,101208.69
2022-12-18T16:52:22.053Z,101212.63
2022-12-18T16:54:50.403Z,101215.38
2022-12-18T16:57:23.541Z,101213.08
2022-12-18T16:59:53.961Z,101212.52
2022-12-18T17:02:24.834Z,101210.21
2022-12-18T17:04:56.236Z,101202.41
2022-12-18T17:07:25.947Z,101189.05
2022-12-18T17:09:54.671Z,101184.73
2022-12-18T17:12:23.648Z,101184.18
2022-12-18T17:14:52.719Z,101176.67
2022-12-18T17:17:22.698Z,101180.64
2022-12-18T17:19:52.686Z,101182.61
2022-12-18T17:22:23.511Z,101179.48
2022-12-18T17:24:51.942Z,101174.88
2022-12-18T17:27:20.154Z,101177.77
2022-12-18T17:29:49.276Z,101171.52
2022-12-18T17:32:18.261Z,101168.88
2022-12-18T17:34:47.124Z,101165.92
2022-12-18T17:37:15.976Z,101164.17
2022-12-18T17:39:44.187Z,101167.25
2022-12-18T17:42:15.520Z,101166.26
2022-12-18T17:44:44.876Z,101168.41
2022-12-18T17:47:14.013Z,101167.02
2022-12-18T17:49:42.136Z,101173.27
2022-12-18T17:52:11.088Z,101173.45
2022-12-18T17:54:41.966Z,101176.95
2022-12-18T17:57:10.437Z,101179.13
2022-12-18T17:59:39.010Z,101193.57
2022-12-18T18:02:07.634Z,101189.81
2022-12-18T18:04:36.759Z,101195.48
2022-12-18T18:07:05.320Z,101203.57
2022-12-18T18:09:33.692Z,101203.65
2022-12-18T18:12:21.244Z,101197.04
2022-12-18T18:14:49.543Z,101198.52
2022-12-18T18:17:17.778Z,101193.59
2022-12-18T18:19:49.507Z,101191.99
2022-12-18T18:22:20.082Z,101187.07
2022-12-18T18:24:48.599Z,101186.73
2022-12-18T18:27:16.898Z,101185.45
2022-12-18T18:29:45.259Z,101183.20
2022-12-18T18:32:13.562Z,101188.30
2022-12-18T18:34:41.953Z,101185.09
2022-12-18T18:37:11.206Z,101188.98
2022-12-18T18:39:39.586Z,101188.16
2022-12-18T18:42:07.937Z,101186.13
2022-12-18T18:44:36.973Z,101188.53
2022-12-18T18:47:07.427Z,101192.25
2022-12-18T18:49:38.334Z,101195.67
2022-12-18T18:52:07.609Z,101193.87
2022-12-18T18:54:35.804Z,101190.94
2022-12-18T18:57:20.471Z,101197.63
2022-12-18T18:59:49.223Z,101197.48
2022-12-18T19:02:18.046Z,101201.10
2022-12-18T19:04:47.147Z,101204.76
2022-12-18T19:07:24.054Z,101208.70
2022-12-18T19:10:03.960Z,101209.57
2022-12-18T19:12:53.327Z,101212.10
2022-12-18T19:15:23.357Z,101218.00
2022-12-18T19:17:51.799Z,101221.08
2022-12-18T19:20:20.363Z,101219.58
2022-12-18T19:22:54.642Z,101221.67
2022-12-18T19:25:29.961Z,101234.12
2022-12-18T19:28:19.292Z,101230.17
2022-12-18T19:30:59.395Z,101224.33
2022-12-18T19:33:45.215Z,101232.09
2022-12-18T19:36:22.342Z,101235.27
2022-12-18T19:38:52.006Z,101234.96
2022-12-18T19:41:21.277Z,101234.23
2022-12-18T19:43:51.355Z,101235.98
2022-12-18T19:46:22.755Z,101234.45
2022-12-18T19:48:51.301Z,101234.67
2022-12-18T19:51:27.470Z,101236.03
2022-12-18T19:53:59.351Z,101234.77
2022-12-18T19:56:31.969Z,101237.14
2022-12-18T19:59:00.377Z,101236.92
2022-12-18T20:01:32.056Z,101231.23
2022-12-18T20:04:01.018Z,101222.00
2022-12-18T20:06:32.566Z,101219.36
2022-12-18T20:09:04.716Z,101228.77
2022-12-18T20:11:35.358Z,101234.93
2022-12-18T20:14:11.247Z,101227.22
2022-12-18T20:16:40.514Z,101218.26
2022-12-18T20:19:10.682Z,101214.86
2022-12-18T20:21:39.141Z,101210.81
2022-12-18T20:24:08.418Z,101208.18
2022-12-18T20:26:36.751Z,101203.98
2022-12-18T20:29:05.272Z,101199.23
2022-12-18T20:31:33.508Z,101191.91
2022-12-18T20:34:03.568Z,101185.17
2022-12-18T20:36:32.878Z,101186.22
2022-12-18T20:39:05.420Z,101182.93
2022-12-18T20:41:38.549Z,101186.88
2022-12-18T20:44:22.489Z,101179.11
2022-12-18T20:46:54.809Z,101171.77
2022-12-18T20:49:23.802Z,101159.52
2022-12-18T20:51:53.964Z,101161.43
2022-12-18T20:54:23.939Z,101168.77
2022-12-18T20:56:52.348Z,101170.20
2022-12-18T20:59:21.008Z,101170.04
2022-12-18T21:01:50.209Z,101169.86
2022-12-18T21:04:19.260Z,101165.77
2022-12-18T21:07:00.476Z,101160.44
2022-12-18T21:09:36.945Z,101160.20
2022-12-18T21:12:35.118Z,101162.98
2022-12-18T21:15:10.184Z,101158.52
2022-12-18T21:17:45.169Z,101164.59
2022-12-18T21:20:17.970Z,101168.84
2022-12-18T21:22:49.369Z,101173.39
2022-12-18T21:25:18.004Z,101173.77
2022-12-18T21:27:46.129Z,101175.16
2022-12-18T21:30:15.319Z,101174.98
2022-12-18T21:32:43.936Z,101173.75
2022-12-18T21:35:12.052Z,101168.17
2022-12-18T21:37:40.468Z,101166.73
2022-12-18T21:40:09.424Z,101164.73
2022-12-18T21:42:56.114Z,101170.91
2022-12-18T21:45:24.460Z,101175.17
2022-12-18T21:47:52.563Z,101166.05
2022-12-18T21:50:20.929Z,101164.91
2022-12-18T21:52:49.196Z,101162.63
2022-12-18T21:55:17.315Z,101161.77
2022-12-18T21:57:45.651Z,101161.65
2022-12-18T22:00:19.002Z,101164.48
2022-12-18T22:03:12.698Z,101162.67
2022-12-18T22:05:38.230Z,101159.91
2022-12-18T22:08:07.088Z,101155.73
2022-12-18T22:10:36.144Z,101154.14
2022-12-18T22:13:06.077Z,101152.98
2022-12-18T22:15:34.597Z,101155.52
2022-12-18T22:18:02.722Z,101155.87
2022-12-18T22:20:31.694Z,101156.50
2022-12-18T22:23:02.869Z,101158.12
2022-12-18T22:25:34.877Z,101157.29
2022-12-18T22:28:22.806Z,101151.31
2022-12-18T22:30:56.365Z,101151.96
2022-12-18T22:33:28.710Z,101152.38
2022-12-18T22:35:57.100Z,101150.20
2022-12-18T22:38:27.547Z,101152.19
2022-12-18T22:40:55.682Z,101144.35
2022-12-18T22:43:24.088Z,101137.83
2022-12-18T22:45:55.971Z,101135.97
2022-12-18T22:48:24.321Z,101138.83
2022-12-18T22:50:54.804Z,101135.46
2022-12-18T22:53:28.032Z,101131.92
2022-12-18T22:56:02.664Z,101126.25
2022-12-18T22:58:31.045Z,101122.35
2022-12-18T23:00:59.313Z,101123.02
2022-12-18T23:03:27.690Z,101127.21
2022-12-18T23:06:05.954Z,101122.33
2022-12-18T23:08:35.436Z,101121.30
2022-12-18T23:11:04.850Z,101112.73
2022-12-18T23:13:33.927Z,101110.83
2022-12-18T23:16:08.883Z,101109.04
2022-12-18T23:18:37.635Z,101116.02
2022-12-18T23:21:12.826Z,101113.95
2022-12-18T23:23:42.508Z,101112.11
2022-12-18T23:26:16.444Z,101113.98
2022-12-18T23:28:44.768Z,101110.39
2022-12-18T23:31:15.696Z,101105.86
2022-12-18T23:33:46.624Z,101110.02
2022-12-18T23:36:15.875Z,101108.36
2022-12-18T23:38:49.424Z,101114.83
2022-12-18T23:41:20.083Z,101118.79
2022-12-18T23:43:48.632Z,101115.98
2022-12-18T23:46:23.441Z,101110.88
2022-12-18T23:48:52.475Z,101109.34
2022-12-18T23:51:26.041Z,101108.52
2022-12-18T23:53:56.217Z,101105.39
2022-12-18T23:56:25.322Z,101105.48
2022-12-18T23:58:53.955Z,101100.58
